createdAt,value
2019-04-14T00:01:11.338Z,98469.00
2019-04-14T00:06:20.118Z,98461.00
2019-04-14T00:11:28.009Z,98459.00
2019-04-14T00:16:35.606Z,98458.00
2019-04-14T00:21:45.439Z,98454.00
2019-04-14T00:26:53.808Z,98460.00
2019-04-14T00:32:00.948Z,98463.00
2019-04-14T00:37:20.513Z,98458.00
2019-04-14T00:42:34.185Z,98447.00
2019-04-14T00:47:57.173Z,98454.00
2019-04-14T00:52:54.740Z,98456.00
2019-04-14T00:58:03.862Z,98442.00
2019-04-14T01:03:11.279Z,98438.00
2019-04-14T01:08:18.496Z,98434.00
2019-04-14T01:13:25.221Z,98429.00
2019-04-14T01:18:32.561Z,98436.00
2019-04-14T01:23:39.213Z,98437.00
2019-04-14T01:28:46.154Z,98437.00
2019-04-14T01:33:53.403Z,98436.00
2019-04-14T01:39:00.385Z,98439.00
2019-04-14T01:44:09.164Z,98437.00
2019-04-14T01:49:16.121Z,98432.00
2019-04-14T01:54:40.970Z,98433.00
2019-04-14T01:59:50.308Z,98432.00
2019-04-14T02:04:57.600Z,98436.00
2019-04-14T02:10:06.524Z,98434.00
2019-04-14T02:15:13.431Z,98444.00
2019-04-14T02:20:20.752Z,98447.00
2019-04-14T02:25:27.736Z,98443.00
2019-04-14T02:30:41.494Z,98454.00
2019-04-14T02:36:14.548Z,98436.00
2019-04-14T02:41:21.546Z,98441.00
2019-04-14T02:46:32.213Z,98441.00
2019-04-14T02:51:38.551Z,98444.00
2019-04-14T02:57:03.562Z,98462.00
2019-04-14T03:02:16.218Z,98454.00
2019-04-14T03:07:16.572Z,98458.00
2019-04-14T03:12:29.133Z,98458.00
2019-04-14T03:17:50.862Z,98458.00
2019-04-14T03:38:15.125Z,98432.00
2019-04-14T03:43:22.598Z,98428.00
2019-04-14T03:53:38.719Z,98434.00
2019-04-14T03:58:20.353Z,98425.00
2019-04-14T04:03:28.204Z,98425.00
2019-04-14T04:08:36.064Z,98421.00
2019-04-14T04:13:43.268Z,98425.00
2019-04-14T04:18:59.087Z,98436.00
2019-04-14T04:24:02.478Z,98433.00
2019-04-14T04:29:16.197Z,98440.00
2019-04-14T04:34:25.090Z,98449.00
2019-04-14T04:39:39.694Z,98443.00
2019-04-14T04:44:46.648Z,98445.00
2019-04-14T04:49:55.372Z,98440.00
2019-04-14T04:55:04.629Z,98447.00
2019-04-14T05:00:13.440Z,98446.00
2019-04-14T05:06:09.250Z,98455.00
2019-04-14T05:11:20.926Z,98457.00
2019-04-14T05:16:30.064Z,98462.00
2019-04-14T05:21:36.668Z,98467.00
2019-04-14T05:26:43.852Z,98471.00
2019-04-14T05:31:51.924Z,98465.00
2019-04-14T05:37:00.657Z,98471.00
2019-04-14T05:42:15.684Z,98475.00
2019-04-14T05:47:17.960Z,98477.00
2019-04-14T05:52:25.454Z,98478.00
2019-04-14T05:57:35.222Z,98482.00
2019-04-14T06:02:42.121Z,98485.00
2019-04-14T06:07:50.372Z,98485.00
2019-04-14T06:12:57.149Z,98471.00
2019-04-14T06:18:05.322Z,98491.00
2019-04-14T06:23:12.150Z,98482.00
2019-04-14T06:28:18.847Z,98486.00
2019-04-14T06:33:27.282Z,98482.00
2019-04-14T06:38:34.785Z,98490.00
2019-04-14T06:43:48.643Z,98483.00
2019-04-14T06:48:51.429Z,98488.00
2019-04-14T06:53:57.501Z,98487.00
2019-04-14T06:59:05.845Z,98488.00
2019-04-14T07:04:12.719Z,98490.00
2019-04-14T07:09:18.704Z,98484.00
2019-04-14T07:14:26.017Z,98494.00
2019-04-14T07:19:33.197Z,98493.00
2019-04-14T07:24:39.091Z,98501.00
2019-04-14T07:29:59.275Z,98501.00
2019-04-14T07:35:11.236Z,98505.00
2019-04-14T07:40:24.530Z,98508.00
2019-04-14T07:45:32.135Z,98507.00
2019-04-14T07:50:40.559Z,98509.00
2019-04-14T07:55:53.703Z,98508.00
2019-04-14T08:01:08.199Z,98515.00
2019-04-14T08:06:27.902Z,98517.00
2019-04-14T08:11:33.839Z,98523.00
2019-04-14T08:16:40.731Z,98512.00
2019-04-14T08:21:48.448Z,98517.00
2019-04-14T08:26:56.065Z,98523.00
2019-04-14T08:32:02.463Z,98527.00
2019-04-14T08:37:09.035Z,98527.00
2019-04-14T08:42:26.152Z,98528.00
2019-04-14T08:47:49.969Z,98527.00
2019-04-14T08:58:32.382Z,98534.00
2019-04-14T09:03:58.244Z,98536.00
2019-04-14T09:09:07.810Z,98538.00
2019-04-14T09:14:14.717Z,98537.00
2019-04-14T09:19:21.503Z,98539.00
2019-04-14T09:24:28.834Z,98524.00
2019-04-14T09:29:37.896Z,98540.00
2019-04-14T09:34:44.628Z,98544.00
2019-04-14T09:39:51.610Z,98526.00
2019-04-14T09:44:59.420Z,98543.00
2019-04-14T09:50:07.858Z,98548.00
2019-04-14T09:55:14.244Z,98553.00
2019-04-14T10:00:21.317Z,98560.00
2019-04-14T10:05:28.121Z,98565.00
2019-04-14T10:10:34.117Z,98560.00
2019-04-14T10:15:41.750Z,98557.00
2019-04-14T10:20:49.694Z,98562.00
2019-04-14T10:25:56.721Z,98571.00
2019-04-14T10:31:04.333Z,98572.00
2019-04-14T10:36:12.221Z,98580.00
2019-04-14T10:41:18.658Z,98578.00
2019-04-14T10:46:25.019Z,98578.00
2019-04-14T10:51:33.853Z,98583.00
2019-04-14T10:56:40.369Z,98581.00
2019-04-14T11:01:46.971Z,98581.00
2019-04-14T11:06:55.049Z,98578.00
2019-04-14T11:12:01.743Z,98581.00
2019-04-14T11:17:08.655Z,98581.00
2019-04-14T11:22:15.485Z,98584.00
2019-04-14T11:27:23.659Z,98574.00
2019-04-14T11:32:31.763Z,98584.00
2019-04-14T11:37:45.511Z,98590.00
2019-04-14T11:42:52.802Z,98600.00
2019-04-14T11:47:59.719Z,98588.00
2019-04-14T11:53:06.294Z,98589.00
2019-04-14T11:58:13.248Z,98588.00
2019-04-14T12:03:38.823Z,98589.00
2019-04-14T12:09:04.450Z,98595.00
2019-04-14T12:14:14.414Z,98607.00
2019-04-14T12:19:21.330Z,98599.00
2019-04-14T12:24:28.119Z,98600.00
2019-04-14T12:29:35.100Z,98610.00
2019-04-14T12:34:41.808Z,98603.00
2019-04-14T12:39:48.169Z,98610.00
2019-04-14T12:44:57.244Z,98612.00
2019-04-14T12:50:08.512Z,98615.00
2019-04-14T12:55:15.606Z,98619.00
2019-04-14T13:00:24.969Z,98615.00
2019-04-14T13:07:53.730Z,98610.00
2019-04-14T13:13:20.252Z,98610.00
2019-04-14T13:18:46.717Z,98621.00
2019-04-14T13:24:12.846Z,98611.00
2019-04-14T13:29:37.949Z,98618.00
2019-04-14T13:35:04.500Z,98624.00
2019-04-14T13:40:30.450Z,98612.00
2019-04-14T13:45:59.821Z,98603.00
2019-04-14T13:51:25.009Z,98605.00
2019-04-14T13:56:51.276Z,98614.00
2019-04-14T14:01:59.354Z,98614.00
2019-04-14T14:07:08.597Z,98605.00
2019-04-14T14:12:24.919Z,98610.00
2019-04-14T14:17:34.524Z,98614.00
2019-04-14T14:23:00.205Z,98614.00
2019-04-14T14:28:09.249Z,98613.00
2019-04-14T14:33:18.189Z,98615.00
2019-04-14T14:38:26.209Z,98612.00
2019-04-14T14:43:35.674Z,98610.00
2019-04-14T14:48:52.604Z,98603.00
2019-04-14T14:54:00.824Z,98614.00
2019-04-14T14:59:08.015Z,98620.00
2019-04-14T15:04:18.874Z,98620.00
2019-04-14T15:09:26.550Z,98614.00
2019-04-14T15:14:35.069Z,98620.00
2019-04-14T15:19:43.515Z,98624.00
2019-04-14T15:24:52.635Z,98621.00
2019-04-14T15:30:00.867Z,98631.00
2019-04-14T15:35:08.453Z,98642.00
2019-04-14T15:40:16.725Z,98638.00
2019-04-14T15:45:25.932Z,98648.00
2019-04-14T15:50:41.319Z,98639.00
2019-04-14T15:55:50.604Z,98644.00
2019-04-14T16:01:05.247Z,98653.00
2019-04-14T16:06:20.433Z,98651.00
2019-04-14T16:11:40.046Z,98656.00
2019-04-14T16:17:10.047Z,98647.00
2019-04-14T16:22:17.829Z,98654.00
2019-04-14T16:27:42.383Z,98656.00
2019-04-14T16:33:08.419Z,98656.00
2019-04-14T16:38:17.977Z,98662.00
2019-04-14T16:43:26.983Z,98668.00
2019-04-14T16:48:35.549Z,98668.00
2019-04-14T16:53:46.845Z,98669.00
2019-04-14T16:58:57.003Z,98674.00
2019-04-14T17:04:05.536Z,98685.00
2019-04-14T17:09:15.862Z,98687.00
2019-04-14T17:14:32.566Z,98683.00
2019-04-14T17:19:43.126Z,98690.00
2019-04-14T17:25:06.093Z,98688.00
2019-04-14T17:30:31.223Z,98699.00
2019-04-14T17:35:44.974Z,98702.00
2019-04-14T17:40:56.561Z,98711.00
2019-04-14T17:46:07.561Z,98713.00
2019-04-14T17:51:22.754Z,98714.00
2019-04-14T17:56:32.934Z,98722.00
2019-04-14T18:01:42.990Z,98724.00
2019-04-14T18:06:55.308Z,98723.00
2019-04-14T18:12:22.182Z,98739.00
2019-04-14T18:17:39.819Z,98751.00
2019-04-14T18:22:48.963Z,98752.00
2019-04-14T18:28:15.000Z,98760.00
2019-04-14T18:33:42.068Z,98765.00
2019-04-14T18:39:04.014Z,98771.00
2019-04-14T18:44:17.163Z,98769.00
2019-04-14T18:49:31.954Z,98783.00
2019-04-14T18:54:54.724Z,98794.00
2019-04-14T19:00:08.769Z,98787.00
2019-04-14T19:05:20.628Z,98798.00
2019-04-14T19:10:30.334Z,98811.00
2019-04-14T19:15:44.496Z,98801.00
2019-04-14T19:20:53.838Z,98799.00
2019-04-14T19:26:01.155Z,98803.00
2019-04-14T19:31:10.190Z,98809.00
2019-04-14T19:36:19.539Z,98814.00
2019-04-14T19:41:27.417Z,98805.00
2019-04-14T19:46:35.718Z,98815.00
2019-04-14T19:51:45.329Z,98812.00
2019-04-14T19:56:54.916Z,98822.00
2019-04-14T20:02:02.830Z,98822.00
2019-04-14T20:07:11.549Z,98830.00
2019-04-14T20:12:20.694Z,98835.00
2019-04-14T20:17:36.261Z,98833.00
2019-04-14T20:23:03.805Z,98837.00
2019-04-14T20:28:28.678Z,98842.00
2019-04-14T20:33:35.791Z,98839.00
2019-04-14T20:38:43.676Z,98845.00
2019-04-14T20:43:51.317Z,98846.00
2019-04-14T20:48:58.302Z,98850.00
2019-04-14T20:54:06.531Z,98853.00
2019-04-14T20:59:15.480Z,98866.00
2019-04-14T21:04:27.477Z,98849.00
2019-04-14T21:09:46.760Z,98871.00
2019-04-14T21:15:02.668Z,98879.00
2019-04-14T21:20:16.366Z,98875.00
2019-04-14T21:25:25.870Z,98877.00
2019-04-14T21:30:50.700Z,98883.00
2019-04-14T21:35:59.535Z,98875.00
2019-04-14T21:41:10.101Z,98885.00
2019-04-14T21:46:29.914Z,98886.00
2019-04-14T21:51:54.766Z,98890.00
2019-04-14T21:57:07.257Z,98894.00
2019-04-14T22:02:16.491Z,98893.00
2019-04-14T22:07:27.170Z,98891.00
2019-04-14T22:12:35.392Z,98906.00
2019-04-14T22:17:44.453Z,98903.00
2019-04-14T22:22:55.537Z,98905.00
2019-04-14T22:28:03.094Z,98900.00
2019-04-14T22:33:13.212Z,98911.00
2019-04-14T22:38:21.125Z,98911.00
2019-04-14T22:43:30.052Z,98911.00
2019-04-14T23:09:23.887Z,98916.00
2019-04-14T23:14:41.639Z,98904.00
2019-04-14T23:20:00.199Z,98919.00
2019-04-14T23:25:08.647Z,98921.00
2019-04-14T23:30:16.628Z,98918.00
2019-04-14T23:35:24.170Z,98925.00
2019-04-14T23:40:31.457Z,98912.00
2019-04-14T23:45:38.682Z,98922.00
2019-04-14T23:50:48.932Z,98919.00
2019-04-14T23:55:56.134Z,98929.00
